• Join FlightAware (Why Join?)
  • Login
  • US Flag 
09:34PM EDT


 

Airport Tracker/Info


-or-


 

Live Flight TrackerFlight Track Log ✈ EEA2756 ✈ 12-Jul-2014 ✈ ZSLG / LYG - ZUUU / CTU

Flight Track Log - Related Links

Times and Time Zones

All times are in EDT time to prevent confusion due to time zone crossing. See the EEA2756 flight status page for this flight to view local times or setup timezone preferences in your user account.

Time Position Orientation Groundspeed Altitude Reporting Facility
EDT Latitude Longitude Course Direction KTS MPH feet Rate Location/Type
05:05AM 34.4804 118.4161 257° West  Level Estimated
05:06AM 34.4620 118.3247 256° West  Level Estimated
05:07AM 34.4435 118.2334 256° West  Level Estimated
05:08AM 34.4249 118.1421 256° West  Level Estimated
05:09AM 34.4072 118.0559 256° West  Level Estimated
05:10AM 34.3896 117.9697 256° West  Level Estimated
05:11AM 34.3718 117.8836 256° West  Level Estimated
05:12AM 34.3540 117.7976 256° West  Level Estimated
05:13AM 34.3362 117.7115 256° West  Level Estimated
05:14AM 34.3182 117.6255 256° West  Level Estimated
05:15AM 34.3003 117.5395 256° West  Level Estimated
05:16AM 34.2822 117.4536 256° West  Level Estimated
05:17AM 34.2641 117.3677 256° West  Level Estimated
05:18AM 34.2460 117.2819 256° West  Level Estimated
05:19AM 34.2277 117.1960 256° West  Level Estimated
05:20AM 34.2095 117.1103 256° West  Level Estimated
05:21AM 34.1911 117.0245 256° West  Level Estimated
05:22AM 34.1727 116.9388 255° West  Level Estimated
05:23AM 34.1543 116.8531 255° West  Level Estimated
05:24AM 34.1357 116.7675 255° West  Level Estimated
05:25AM 34.1172 116.6819 255° West  Level Estimated
05:26AM 34.0985 116.5963 255° West  Level Estimated
05:27AM 34.0798 116.5108 255° West  Level Estimated
05:28AM 34.0611 116.4253 255° West  Level Estimated
05:29AM 34.0423 116.3399 255° West  Level Estimated
05:30AM 34.0234 116.2545 255° West  Level Estimated
05:31AM 34.0045 116.1691 255° West  Level Estimated
05:32AM 33.9855 116.0838 255° West  Level Estimated
05:33AM 33.9664 115.9985 255° West  Level Estimated
05:34AM 33.9473 115.9132 255° West  Level Estimated
05:35AM 33.9281 115.8280 255° West  Level Estimated
05:36AM 33.9089 115.7428 255° West  Level Estimated
05:37AM 33.8896 115.6577 255° West  Level Estimated
05:38AM 33.8703 115.5726 255° West  Level Estimated
05:39AM 33.8509 115.4875 255° West  Level Estimated
05:40AM 33.8314 115.4025 255° West  Level Estimated
05:41AM 33.8119 115.3175 255° West  Level Estimated
05:42AM 33.7923 115.2326 255° West  Level Estimated
05:43AM 33.7727 115.1477 254° West  Level Estimated
05:44AM 33.7530 115.0628 254° West  Level Estimated
05:45AM 33.7332 114.9780 254° West  Level Estimated
05:46AM 33.7134 114.8932 254° West  Level Estimated
05:47AM 33.6936 114.8084 254° West  Level Estimated
05:48AM 33.6736 114.7237 254° West  Level Estimated
05:49AM 33.6536 114.6390 254° West  Level Estimated
05:50AM 33.6336 114.5544 254° West  Level Estimated
05:51AM 33.6135 114.4698 254° West  Level Estimated
05:52AM 33.5934 114.3852 254° West  Level Estimated
05:53AM 33.5731 114.3007 254° West  Level Estimated
05:54AM 33.5529 114.2163 254° West  Level Estimated
05:55AM 33.5325 114.1318 254° West  Level Estimated
05:56AM 33.5122 114.0474 254° West  Level Estimated
05:57AM 33.4917 113.9631 254° West  Level Estimated
05:58AM 33.4712 113.8788 254° West  Level Estimated
05:59AM 33.4507 113.7945 254° West  Level Estimated
06:00AM 33.4300 113.7102 254° West  Level Estimated
06:01AM 33.4094 113.6260 254° West  Level Estimated
06:02AM 33.3886 113.5419 254° West  Level Estimated
06:03AM 33.3679 113.4578 254° West  Level Estimated
06:04AM 33.3470 113.3737 253° West  Level Estimated
06:05AM 33.3261 113.2897 253° West  Level Estimated
06:06AM 33.3052 113.2057 253° West  Level Estimated
06:07AM 33.2842 113.1217 253° West  Level Estimated
06:08AM 33.2631 113.0378 253° West  Level Estimated
06:09AM 33.2420 112.9539 253° West  Level Estimated
06:10AM 33.2208 112.8701 253° West  Level Estimated
06:11AM 33.1996 112.7863 253° West  Level Estimated
06:12AM 33.1783 112.7025 253° West  Level Estimated
06:13AM 33.1569 112.6188 253° West  Level Estimated
06:14AM 33.1355 112.5352 253° West  Level Estimated
06:15AM 33.1141 112.4515 253° West  Level Estimated
06:16AM 33.0925 112.3679 253° West  Level Estimated
06:17AM 33.0710 112.2844 253° West  Level Estimated
06:18AM 33.0493 112.2009 253° West  Level Estimated
06:19AM 33.0276 112.1174 253° West  Level Estimated
06:20AM 33.0059 112.0340 253° West  Level Estimated
06:21AM 32.9841 111.9506 253° West  Level Estimated
06:22AM 32.9623 111.8673 253° West  Level Estimated
06:23AM 32.9404 111.7840 253° West  Level Estimated
06:24AM 32.9184 111.7007 253° West  Level Estimated
06:25AM 32.8964 111.6175 253° West  Level Estimated
06:26AM 32.8743 111.5343 252° West  Level Estimated
06:27AM 32.8522 111.4512 252° West  Level Estimated
06:28AM 32.8300 111.3681 252° West  Level Estimated
06:29AM 32.8078 111.2850 252° West  Level Estimated
06:30AM 32.7855 111.2020 252° West  Level Estimated
06:31AM 32.7631 111.1191 252° West  Level Estimated
06:32AM 32.7407 111.0361 252° West  Level Estimated
06:33AM 32.7183 110.9532 252° West  Level Estimated
06:34AM 32.6958 110.8704 252° West  Level Estimated
06:35AM 32.6732 110.7876 252° West  Level Estimated
06:36AM 32.6506 110.7048 252° West  Level Estimated
06:37AM 32.6279 110.6221 252° West  Level Estimated
06:38AM 32.6052 110.5394 252° West  Level Estimated
06:39AM 32.5824 110.4568 252° West  Level Estimated
06:40AM 32.5596 110.3742 252° West  Level Estimated
06:41AM 32.5367 110.2917 252° West  Level Estimated
06:42AM 32.5138 110.2092 252° West  Level Estimated
06:43AM 32.4908 110.1267 252° West  Level Estimated
06:44AM 32.4677 110.0443 252° West  Level Estimated
06:45AM 32.4446 109.9619 252° West  Level Estimated
06:46AM 32.4215 109.8795 252° West  Level Estimated
06:47AM 32.3983 109.7972 252° West  Level Estimated
06:48AM 32.3750 109.7150 252° West  Level Estimated
06:49AM 32.3517 109.6328 251° West  Level Estimated
06:50AM 32.3283 109.5506 251° West  Level Estimated
06:51AM 32.3049 109.4685 251° West  Level Estimated
06:52AM 32.2814 109.3864 251° West  Level Estimated
06:53AM 32.2579 109.3044 251° West  Level Estimated
06:54AM 32.2343 109.2224 251° West  Level Estimated
06:55AM 32.2107 109.1404 251° West  Level Estimated
06:56AM 32.1870 109.0585 251° West  Level Estimated
06:57AM 32.1632 108.9766 251° West  Level Estimated
06:58AM 32.1394 108.8948 251° West  Level Estimated
06:59AM 32.1156 108.8130 251° West  Level Estimated
07:00AM 32.0917 108.7313 251° West  Level Estimated
07:01AM 32.0677 108.6496 251° West  Level Estimated
07:02AM 32.0437 108.5679 251° West  Level Estimated
07:03AM 32.0197 108.4863 251° West  Level Estimated
07:04AM 31.9956 108.4047 251° West  Level Estimated
07:05AM 31.9714 108.3232 251° West  Level Estimated
07:06AM 31.9472 108.2417 251° West  Level Estimated
07:07AM 31.9229 108.1602 251° West  Level Estimated
07:08AM 31.8986 108.0788 251° West  Level Estimated
07:09AM 31.8742 107.9975 251° West  Level Estimated
07:10AM 31.8498 107.9162 251° West  Level Estimated
07:11AM 31.8253 107.8349 251° West  Level Estimated
07:12AM 31.8008 107.7537 250° West  Level Estimated
07:13AM 31.7763 107.6725 250° West  Level Estimated
07:14AM 31.7516 107.5914 250° West  Level Estimated
07:15AM 31.7269 107.5103 250° West  Level Estimated
07:16AM 31.7022 107.4292 250° West  Level Estimated
07:17AM 31.6774 107.3482 250° West  Level Estimated
07:18AM 31.6526 107.2672 250° West  Level Estimated
07:19AM 31.6277 107.1863 250° West  Level Estimated
07:20AM 31.6028 107.1054 250° West  Level Estimated
07:21AM 31.5778 107.0246 250° West  Level Estimated
07:22AM 31.5528 106.9438 250° West  Level Estimated
07:23AM 31.5277 106.8630 250° West  Level Estimated
07:24AM 31.5026 106.7823 250° West  Level Estimated
07:25AM 31.4774 106.7017 250° West  Level Estimated
07:26AM 31.4521 106.6210 250° West  Level Estimated
07:27AM 31.4268 106.5405 250° West  Level Estimated
07:28AM 31.4015 106.4599 250° West  Level Estimated
07:29AM 31.3761 106.3794 250° West  Level Estimated
07:30AM 31.3507 106.2990 250° West  Level Estimated
07:31AM 31.3252 106.2186 250° West  Level Estimated
07:32AM 31.2996 106.1382 250° West  Level Estimated
07:33AM 31.2740 106.0579 250° West  Level Estimated
07:34AM 31.2484 105.9776 250° West  Level Estimated
07:35AM 31.2227 105.8974 249° West  Level Estimated
07:36AM 31.1970 105.8172 249° West  Level Estimated
07:37AM 31.1712 105.7371 249° West  Level Estimated
07:38AM 31.1453 105.6570 249° West  Level Estimated
07:39AM 31.1195 105.5769 249° West  Level Estimated
07:40AM 31.0935 105.4969 249° West  Level Estimated
07:41AM 31.0675 105.4169 249° West  Level Estimated
07:42AM 31.0415 105.3370 249° West  Level Estimated
07:43AM 31.0154 105.2571 249° West  Level Estimated
07:44AM 30.9893 105.1773 249° West  Level Estimated
07:45AM 30.9631 105.0975 249° West  Level Estimated
07:46AM 30.9369 105.0178 249° West  Level Estimated
07:47AM 30.9106 104.9380 249° West  Level Estimated
07:48AM 30.8843 104.8584 249° West  Level Estimated
07:49AM 30.8579 104.7788 249° West  Level Estimated
07:50AM 30.8314 104.6992 249° West  Level Estimated
07:51AM 30.8050 104.6197 249° West  Level Estimated
07:52AM 30.7784 104.5402 249° West  Level Estimated
07:53AM 30.7519 104.4607 249° West  Level Estimated
07:54AM 30.7253 104.3813 249° West  Level Estimated
07:55AM 30.6986 104.3020 249° West  Level Estimated
07:56AM 30.6719 104.2227 249° West  Level Estimated
07:57AM 30.6451 104.1434 249° West  Level Estimated
07:58AM 30.6183 104.0642 249° West  Level Estimated
07:59AM 30.5914 103.9850 249° West  Level Estimated
08:00AM 30.5785 103.9471 248° West  Level Estimated
08:01AM 30.5785 103.9471 North  Level Estimated
08:02AM 30.5785 103.9471 North  Level Estimated
08:03AM 30.5785 103.9471 North  Level Estimated
08:04AM 30.5785 103.9471 North  Level Estimated
08:05AM 30.5785 103.9471 North  Level Estimated
08:06AM 30.5785 103.9471 North  Level Estimated
08:07AM 30.5785 103.9471 North  Level Estimated
08:08AM 30.5785 103.9471 North  Level Estimated
08:09AM 30.5785 103.9471 North  Level Estimated
08:10AM 30.5785 103.9471 North  Level Estimated
08:11AM 30.5785 103.9471 North  Level Estimated
08:12AM 30.5785 103.9471 North  Level Estimated
08:13AM 30.5785 103.9471 North  Level Estimated
08:14AM 30.5785 103.9471 North  Level Estimated
08:15AM 30.5785 103.9471 North  Level Estimated
08:16AM 30.5785 103.9471 North  Level Estimated